sensor_id;sensor_type;location;lat;lon;timestamp;P1;durP1;ratioP1;P2;durP2;ratioP2
35540;SDS011;21650;48.840;9.162;2022-09-09T00:06:45;5.70;;;1.60;;
35540;SDS011;21650;48.840;9.162;2022-09-09T00:09:21;6.47;;;1.70;;
35540;SDS011;21650;48.840;9.162;2022-09-09T00:14:18;5.23;;;1.77;;
35540;SDS011;21650;48.840;9.162;2022-09-09T00:16:58;2.40;;;1.30;;
35540;SDS011;21650;48.840;9.162;2022-09-09T00:19:41;4.17;;;1.40;;
35540;SDS011;21650;48.840;9.162;2022-09-09T00:22:16;2.03;;;1.07;;
35540;SDS011;21650;48.840;9.162;2022-09-09T00:24:54;1.90;;;1.00;;
35540;SDS011;21650;48.840;9.162;2022-09-09T00:27:32;2.20;;;1.83;;
35540;SDS011;21650;48.840;9.162;2022-09-09T00:32:49;2.67;;;1.57;;
35540;SDS011;21650;48.840;9.162;2022-09-09T00:35:23;4.03;;;1.30;;
35540;SDS011;21650;48.840;9.162;2022-09-09T00:37:56;3.20;;;0.80;;
35540;SDS011;21650;48.840;9.162;2022-09-09T00:40:28;3.00;;;1.67;;
35540;SDS011;21650;48.840;9.162;2022-09-09T00:46:10;3.90;;;0.80;;
35540;SDS011;21650;48.840;9.162;2022-09-09T00:49:00;4.13;;;1.60;;
35540;SDS011;21650;48.840;9.162;2022-09-09T00:57:25;4.17;;;1.10;;
35540;SDS011;21650;48.840;9.162;2022-09-09T00:59:58;2.97;;;1.90;;
35540;SDS011;21650;48.840;9.162;2022-09-09T01:07:57;2.83;;;0.97;;
35540;SDS011;21650;48.840;9.162;2022-09-09T01:10:42;3.50;;;0.90;;
35540;SDS011;21650;48.840;9.162;2022-09-09T01:13:14;2.80;;;0.87;;
35540;SDS011;21650;48.840;9.162;2022-09-09T01:15:47;3.03;;;0.90;;
35540;SDS011;21650;48.840;9.162;2022-09-09T01:18:14;4.40;;;1.27;;
35540;SDS011;21650;48.840;9.162;2022-09-09T01:28:44;0.80;;;0.80;;
35540;SDS011;21650;48.840;9.162;2022-09-09T01:31:14;4.33;;;0.90;;
35540;SDS011;21650;48.840;9.162;2022-09-09T01:33:43;1.20;;;0.83;;
35540;SDS011;21650;48.840;9.162;2022-09-09T01:36:13;5.10;;;1.20;;
35540;SDS011;21650;48.840;9.162;2022-09-09T01:38:46;1.83;;;0.90;;
35540;SDS011;21650;48.840;9.162;2022-09-09T01:41:12;2.20;;;1.10;;
35540;SDS011;21650;48.840;9.162;2022-09-09T01:43:37;3.17;;;1.00;;
35540;SDS011;21650;48.840;9.162;2022-09-09T01:46:03;1.70;;;1.00;;
35540;SDS011;21650;48.840;9.162;2022-09-09T01:48:29;1.47;;;1.17;;
35540;SDS011;21650;48.840;9.162;2022-09-09T01:50:55;4.83;;;0.80;;
35540;SDS011;21650;48.840;9.162;2022-09-09T01:53:21;4.10;;;1.13;;
35540;SDS011;21650;48.840;9.162;2022-09-09T02:04:48;4.90;;;0.83;;
35540;SDS011;21650;48.840;9.162;2022-09-09T02:07:33;1.87;;;1.00;;
35540;SDS011;21650;48.840;9.162;2022-09-09T02:10:11;2.90;;;0.77;;
35540;SDS011;21650;48.840;9.162;2022-09-09T02:12:40;1.50;;;1.10;;
35540;SDS011;21650;48.840;9.162;2022-09-09T02:15:16;2.40;;;1.07;;
35540;SDS011;21650;48.840;9.162;2022-09-09T02:17:48;5.23;;;1.07;;
35540;SDS011;21650;48.840;9.162;2022-09-09T02:20:17;5.23;;;1.00;;
35540;SDS011;21650;48.840;9.162;2022-09-09T02:22:44;3.67;;;0.97;;
35540;SDS011;21650;48.840;9.162;2022-09-09T02:25:14;2.30;;;1.10;;
35540;SDS011;21650;48.840;9.162;2022-09-09T02:27:45;6.50;;;1.07;;
35540;SDS011;21650;48.840;9.162;2022-09-09T02:30:12;4.70;;;1.20;;
35540;SDS011;21650;48.840;9.162;2022-09-09T02:32:38;3.17;;;1.00;;
35540;SDS011;21650;48.840;9.162;2022-09-09T02:35:09;3.97;;;0.90;;
35540;SDS011;21650;48.840;9.162;2022-09-09T02:37:38;2.90;;;0.80;;
35540;SDS011;21650;48.840;9.162;2022-09-09T02:40:07;3.67;;;1.20;;
35540;SDS011;21650;48.840;9.162;2022-09-09T02:42:43;1.33;;;0.90;;
35540;SDS011;21650;48.840;9.162;2022-09-09T02:45:10;2.30;;;1.00;;
35540;SDS011;21650;48.840;9.162;2022-09-09T02:47:47;5.00;;;1.83;;
35540;SDS011;21650;48.840;9.162;2022-09-09T02:50:22;5.47;;;1.37;;
35540;SDS011;21650;48.840;9.162;2022-09-09T02:55:41;2.57;;;0.97;;
35540;SDS011;21650;48.840;9.162;2022-09-09T02:58:10;3.20;;;0.80;;
35540;SDS011;21650;48.840;9.162;2022-09-09T03:00:42;1.10;;;0.67;;
35540;SDS011;21650;48.840;9.162;2022-09-09T03:03:08;1.33;;;0.80;;
35540;SDS011;21650;48.840;9.162;2022-09-09T03:05:35;2.77;;;0.97;;
35540;SDS011;21650;48.840;9.162;2022-09-09T03:08:00;2.73;;;0.73;;
35540;SDS011;21650;48.840;9.162;2022-09-09T03:10:27;1.10;;;0.60;;
35540;SDS011;21650;48.840;9.162;2022-09-09T03:12:52;2.07;;;1.00;;
35540;SDS011;21650;48.840;9.162;2022-09-09T03:15:18;1.43;;;1.03;;
35540;SDS011;21650;48.840;9.162;2022-09-09T03:17:44;2.40;;;0.63;;
35540;SDS011;21650;48.840;9.162;2022-09-09T03:20:09;0.97;;;0.77;;
35540;SDS011;21650;48.840;9.162;2022-09-09T03:22:35;2.23;;;0.77;;
35540;SDS011;21650;48.840;9.162;2022-09-09T03:25:01;3.53;;;1.00;;
35540;SDS011;21650;48.840;9.162;2022-09-09T03:27:27;2.17;;;0.50;;
35540;SDS011;21650;48.840;9.162;2022-09-09T03:29:53;2.77;;;0.80;;
35540;SDS011;21650;48.840;9.162;2022-09-09T03:32:20;0.80;;;0.37;;
35540;SDS011;21650;48.840;9.162;2022-09-09T03:34:47;1.77;;;0.60;;
35540;SDS011;21650;48.840;9.162;2022-09-09T03:37:15;3.63;;;0.90;;
35540;SDS011;21650;48.840;9.162;2022-09-09T03:39:42;4.07;;;0.90;;
35540;SDS011;21650;48.840;9.162;2022-09-09T03:42:08;4.00;;;0.67;;
35540;SDS011;21650;48.840;9.162;2022-09-09T03:44:33;2.17;;;0.43;;
35540;SDS011;21650;48.840;9.162;2022-09-09T03:46:59;5.07;;;0.70;;
35540;SDS011;21650;48.840;9.162;2022-09-09T03:49:25;3.40;;;0.83;;
35540;SDS011;21650;48.840;9.162;2022-09-09T03:51:53;3.80;;;0.80;;
35540;SDS011;21650;48.840;9.162;2022-09-09T03:54:21;1.13;;;0.50;;
35540;SDS011;21650;48.840;9.162;2022-09-09T03:56:47;2.03;;;0.70;;
35540;SDS011;21650;48.840;9.162;2022-09-09T03:59:13;2.53;;;0.90;;
35540;SDS011;21650;48.840;9.162;2022-09-09T04:01:39;2.10;;;0.60;;
35540;SDS011;21650;48.840;9.162;2022-09-09T04:04:05;0.97;;;0.60;;
35540;SDS011;21650;48.840;9.162;2022-09-09T04:06:30;1.10;;;0.60;;
35540;SDS011;21650;48.840;9.162;2022-09-09T04:08:56;3.17;;;0.70;;
35540;SDS011;21650;48.840;9.162;2022-09-09T04:11:22;2.23;;;0.83;;
35540;SDS011;21650;48.840;9.162;2022-09-09T04:13:47;2.97;;;0.60;;
35540;SDS011;21650;48.840;9.162;2022-09-09T04:16:14;3.87;;;0.93;;
35540;SDS011;21650;48.840;9.162;2022-09-09T04:18:39;1.93;;;0.70;;
35540;SDS011;21650;48.840;9.162;2022-09-09T04:21:05;1.83;;;1.07;;
35540;SDS011;21650;48.840;9.162;2022-09-09T04:23:33;2.40;;;1.40;;
35540;SDS011;21650;48.840;9.162;2022-09-09T04:26:00;1.90;;;0.70;;
35540;SDS011;21650;48.840;9.162;2022-09-09T04:28:31;3.67;;;1.03;;
35540;SDS011;21650;48.840;9.162;2022-09-09T04:31:09;3.77;;;0.93;;
35540;SDS011;21650;48.840;9.162;2022-09-09T04:33:37;3.53;;;0.90;;
35540;SDS011;21650;48.840;9.162;2022-09-09T04:36:04;3.17;;;1.10;;
35540;SDS011;21650;48.840;9.162;2022-09-09T04:38:30;1.97;;;0.80;;
35540;SDS011;21650;48.840;9.162;2022-09-09T04:40:55;1.77;;;0.80;;
35540;SDS011;21650;48.840;9.162;2022-09-09T04:43:22;4.00;;;1.27;;
35540;SDS011;21650;48.840;9.162;2022-09-09T04:45:48;1.80;;;1.27;;
35540;SDS011;21650;48.840;9.162;2022-09-09T04:48:14;3.93;;;1.50;;
35540;SDS011;21650;48.840;9.162;2022-09-09T04:50:40;2.27;;;1.30;;
35540;SDS011;21650;48.840;9.162;2022-09-09T04:53:06;4.70;;;1.13;;
35540;SDS011;21650;48.840;9.162;2022-09-09T04:55:32;3.80;;;1.60;;
35540;SDS011;21650;48.840;9.162;2022-09-09T04:58:06;2.10;;;1.37;;
35540;SDS011;21650;48.840;9.162;2022-09-09T05:03:11;1.97;;;1.27;;
35540;SDS011;21650;48.840;9.162;2022-09-09T05:05:37;5.20;;;1.53;;
35540;SDS011;21650;48.840;9.162;2022-09-09T05:08:04;3.47;;;1.23;;
35540;SDS011;21650;48.840;9.162;2022-09-09T05:10:31;4.63;;;1.03;;
35540;SDS011;21650;48.840;9.162;2022-09-09T05:12:57;3.53;;;1.60;;
35540;SDS011;21650;48.840;9.162;2022-09-09T05:15:24;4.47;;;1.47;;
35540;SDS011;21650;48.840;9.162;2022-09-09T05:17:49;4.97;;;1.33;;
35540;SDS011;21650;48.840;9.162;2022-09-09T05:20:17;3.80;;;1.60;;
35540;SDS011;21650;48.840;9.162;2022-09-09T05:22:43;3.13;;;1.30;;
35540;SDS011;21650;48.840;9.162;2022-09-09T05:25:09;3.20;;;1.50;;
35540;SDS011;21650;48.840;9.162;2022-09-09T05:27:34;2.40;;;1.20;;
35540;SDS011;21650;48.840;9.162;2022-09-09T05:30:00;3.37;;;1.80;;
35540;SDS011;21650;48.840;9.162;2022-09-09T05:32:26;3.03;;;1.57;;
35540;SDS011;21650;48.840;9.162;2022-09-09T05:34:52;5.67;;;1.70;;
35540;SDS011;21650;48.840;9.162;2022-09-09T05:37:17;1.73;;;1.30;;
35540;SDS011;21650;48.840;9.162;2022-09-09T05:39:43;4.63;;;2.07;;
35540;SDS011;21650;48.840;9.162;2022-09-09T05:42:09;5.13;;;1.40;;
35540;SDS011;21650;48.840;9.162;2022-09-09T05:44:34;2.70;;;1.60;;
35540;SDS011;21650;48.840;9.162;2022-09-09T05:47:00;2.20;;;1.40;;
35540;SDS011;21650;48.840;9.162;2022-09-09T05:49:26;2.97;;;1.57;;
35540;SDS011;21650;48.840;9.162;2022-09-09T05:51:51;2.20;;;1.40;;
35540;SDS011;21650;48.840;9.162;2022-09-09T05:54:17;4.40;;;1.13;;
35540;SDS011;21650;48.840;9.162;2022-09-09T05:56:43;5.83;;;1.63;;
35540;SDS011;21650;48.840;9.162;2022-09-09T05:59:09;5.10;;;1.40;;
35540;SDS011;21650;48.840;9.162;2022-09-09T06:01:36;7.40;;;1.80;;
35540;SDS011;21650;48.840;9.162;2022-09-09T06:04:05;2.67;;;1.00;;
35540;SDS011;21650;48.840;9.162;2022-09-09T06:06:32;4.53;;;1.50;;
35540;SDS011;21650;48.840;9.162;2022-09-09T06:09:02;8.70;;;1.63;;
35540;SDS011;21650;48.840;9.162;2022-09-09T06:11:31;3.40;;;1.30;;
35540;SDS011;21650;48.840;9.162;2022-09-09T06:13:58;3.23;;;1.50;;
35540;SDS011;21650;48.840;9.162;2022-09-09T06:16:25;5.20;;;1.30;;
35540;SDS011;21650;48.840;9.162;2022-09-09T06:18:53;5.30;;;1.77;;
35540;SDS011;21650;48.840;9.162;2022-09-09T06:21:20;10.83;;;1.73;;
35540;SDS011;21650;48.840;9.162;2022-09-09T06:23:50;4.83;;;1.40;;
35540;SDS011;21650;48.840;9.162;2022-09-09T06:26:35;2.87;;;1.43;;
35540;SDS011;21650;48.840;9.162;2022-09-09T06:29:06;4.40;;;1.37;;
35540;SDS011;21650;48.840;9.162;2022-09-09T06:31:32;3.90;;;1.60;;
35540;SDS011;21650;48.840;9.162;2022-09-09T06:33:59;6.77;;;1.70;;
35540;SDS011;21650;48.840;9.162;2022-09-09T06:38:59;7.20;;;1.50;;
35540;SDS011;21650;48.840;9.162;2022-09-09T06:41:26;5.30;;;1.57;;
35540;SDS011;21650;48.840;9.162;2022-09-09T06:43:53;5.27;;;1.90;;
35540;SDS011;21650;48.840;9.162;2022-09-09T06:46:23;3.73;;;1.37;;
35540;SDS011;21650;48.840;9.162;2022-09-09T06:48:55;5.47;;;1.67;;
35540;SDS011;21650;48.840;9.162;2022-09-09T06:51:22;6.57;;;1.33;;
35540;SDS011;21650;48.840;9.162;2022-09-09T06:53:51;5.37;;;1.60;;
35540;SDS011;21650;48.840;9.162;2022-09-09T06:56:22;3.60;;;1.40;;
35540;SDS011;21650;48.840;9.162;2022-09-09T06:58:50;4.80;;;1.27;;
35540;SDS011;21650;48.840;9.162;2022-09-09T07:01:17;3.43;;;1.33;;
35540;SDS011;21650;48.840;9.162;2022-09-09T07:03:47;1.70;;;1.00;;
35540;SDS011;21650;48.840;9.162;2022-09-09T07:06:16;8.07;;;1.60;;
35540;SDS011;21650;48.840;9.162;2022-09-09T07:08:44;7.03;;;1.60;;
35540;SDS011;21650;48.840;9.162;2022-09-09T07:11:14;3.20;;;1.20;;
35540;SDS011;21650;48.840;9.162;2022-09-09T07:13:39;3.60;;;1.37;;
35540;SDS011;21650;48.840;9.162;2022-09-09T07:16:06;3.83;;;1.07;;
35540;SDS011;21650;48.840;9.162;2022-09-09T07:18:33;1.17;;;0.80;;
35540;SDS011;21650;48.840;9.162;2022-09-09T07:20:59;3.07;;;0.97;;
35540;SDS011;21650;48.840;9.162;2022-09-09T07:23:27;2.80;;;1.10;;
35540;SDS011;21650;48.840;9.162;2022-09-09T07:25:53;1.90;;;1.10;;
35540;SDS011;21650;48.840;9.162;2022-09-09T07:28:19;2.00;;;1.00;;
35540;SDS011;21650;48.840;9.162;2022-09-09T07:31:03;7.30;;;1.77;;
35540;SDS011;21650;48.840;9.162;2022-09-09T07:33:31;2.50;;;0.87;;
35540;SDS011;21650;48.840;9.162;2022-09-09T07:36:07;3.10;;;1.10;;
35540;SDS011;21650;48.840;9.162;2022-09-09T07:38:39;4.03;;;1.00;;
35540;SDS011;21650;48.840;9.162;2022-09-09T07:41:06;2.03;;;0.90;;
35540;SDS011;21650;48.840;9.162;2022-09-09T07:43:36;3.57;;;1.10;;
35540;SDS011;21650;48.840;9.162;2022-09-09T07:46:03;1.90;;;0.90;;
35540;SDS011;21650;48.840;9.162;2022-09-09T07:48:30;3.57;;;1.37;;
35540;SDS011;21650;48.840;9.162;2022-09-09T07:51:07;2.07;;;0.90;;
35540;SDS011;21650;48.840;9.162;2022-09-09T07:53:44;2.23;;;1.07;;
35540;SDS011;21650;48.840;9.162;2022-09-09T07:56:12;4.13;;;1.00;;
35540;SDS011;21650;48.840;9.162;2022-09-09T07:58:41;2.70;;;1.20;;
35540;SDS011;21650;48.840;9.162;2022-09-09T08:01:10;4.80;;;1.03;;
35540;SDS011;21650;48.840;9.162;2022-09-09T08:03:37;2.27;;;0.80;;
35540;SDS011;21650;48.840;9.162;2022-09-09T08:06:03;1.10;;;0.80;;
35540;SDS011;21650;48.840;9.162;2022-09-09T08:08:32;4.40;;;0.80;;
35540;SDS011;21650;48.840;9.162;2022-09-09T08:11:16;4.67;;;1.10;;
35540;SDS011;21650;48.840;9.162;2022-09-09T08:13:43;4.23;;;0.90;;
35540;SDS011;21650;48.840;9.162;2022-09-09T08:18:41;4.33;;;0.90;;
35540;SDS011;21650;48.840;9.162;2022-09-09T08:21:14;1.60;;;0.87;;
35540;SDS011;21650;48.840;9.162;2022-09-09T08:23:43;3.50;;;1.00;;
35540;SDS011;21650;48.840;9.162;2022-09-09T08:26:23;5.87;;;0.83;;
35540;SDS011;21650;48.840;9.162;2022-09-09T08:28:54;1.43;;;0.50;;
35540;SDS011;21650;48.840;9.162;2022-09-09T08:33:48;2.13;;;0.80;;
35540;SDS011;21650;48.840;9.162;2022-09-09T08:36:15;1.77;;;0.80;;
35540;SDS011;21650;48.840;9.162;2022-09-09T08:38:42;2.73;;;0.80;;
35540;SDS011;21650;48.840;9.162;2022-09-09T08:43:43;4.97;;;1.00;;
35540;SDS011;21650;48.840;9.162;2022-09-09T08:46:15;6.93;;;1.70;;
35540;SDS011;21650;48.840;9.162;2022-09-09T08:51:50;2.87;;;0.80;;
35540;SDS011;21650;48.840;9.162;2022-09-09T08:54:20;3.70;;;1.03;;
35540;SDS011;21650;48.840;9.162;2022-09-09T08:56:46;1.40;;;0.80;;
35540;SDS011;21650;48.840;9.162;2022-09-09T08:59:12;2.10;;;0.70;;
35540;SDS011;21650;48.840;9.162;2022-09-09T09:04:29;1.97;;;0.77;;
35540;SDS011;21650;48.840;9.162;2022-09-09T09:10:02;1.13;;;0.63;;
35540;SDS011;21650;48.840;9.162;2022-09-09T09:12:40;3.23;;;0.80;;
35540;SDS011;21650;48.840;9.162;2022-09-09T09:15:14;4.20;;;1.20;;
35540;SDS011;21650;48.840;9.162;2022-09-09T09:17:42;2.03;;;0.63;;
35540;SDS011;21650;48.840;9.162;2022-09-09T09:20:11;4.47;;;1.13;;
35540;SDS011;21650;48.840;9.162;2022-09-09T09:22:50;3.53;;;0.80;;
35540;SDS011;21650;48.840;9.162;2022-09-09T09:25:26;2.27;;;0.73;;
35540;SDS011;21650;48.840;9.162;2022-09-09T09:30:34;2.97;;;0.80;;
35540;SDS011;21650;48.840;9.162;2022-09-09T09:36:15;4.27;;;0.90;;
35540;SDS011;21650;48.840;9.162;2022-09-09T09:38:55;2.80;;;0.97;;
35540;SDS011;21650;48.840;9.162;2022-09-09T09:41:36;3.43;;;1.23;;
35540;SDS011;21650;48.840;9.162;2022-09-09T09:44:05;1.40;;;0.60;;
35540;SDS011;21650;48.840;9.162;2022-09-09T09:46:46;1.20;;;0.80;;
35540;SDS011;21650;48.840;9.162;2022-09-09T09:49:11;1.50;;;0.60;;
35540;SDS011;21650;48.840;9.162;2022-09-09T09:51:38;3.30;;;1.03;;
35540;SDS011;21650;48.840;9.162;2022-09-09T09:54:09;1.63;;;0.70;;
35540;SDS011;21650;48.840;9.162;2022-09-09T09:56:43;2.50;;;0.70;;
35540;SDS011;21650;48.840;9.162;2022-09-09T09:59:22;0.83;;;0.43;;
35540;SDS011;21650;48.840;9.162;2022-09-09T10:05:00;1.47;;;0.40;;
35540;SDS011;21650;48.840;9.162;2022-09-09T10:07:29;4.67;;;0.53;;
35540;SDS011;21650;48.840;9.162;2022-09-09T10:09:57;2.33;;;0.60;;
35540;SDS011;21650;48.840;9.162;2022-09-09T10:18:04;3.90;;;0.70;;
35540;SDS011;21650;48.840;9.162;2022-09-09T10:26:15;2.20;;;0.40;;
35540;SDS011;21650;48.840;9.162;2022-09-09T10:37:26;5.83;;;1.00;;
35540;SDS011;21650;48.840;9.162;2022-09-09T10:40:27;3.27;;;1.03;;
35540;SDS011;21650;48.840;9.162;2022-09-09T10:43:29;2.90;;;0.67;;
35540;SDS011;21650;48.840;9.162;2022-09-09T10:57:48;3.30;;;0.67;;
35540;SDS011;21650;48.840;9.162;2022-09-09T11:00:21;3.40;;;0.83;;
35540;SDS011;21650;48.840;9.162;2022-09-09T11:03:03;1.50;;;0.50;;
35540;SDS011;21650;48.840;9.162;2022-09-09T11:08:23;0.83;;;0.47;;
35540;SDS011;21650;48.840;9.162;2022-09-09T11:10:53;3.33;;;1.43;;
35540;SDS011;21650;48.840;9.162;2022-09-09T11:13:49;1.57;;;0.90;;
35540;SDS011;21650;48.840;9.162;2022-09-09T11:16:52;2.60;;;0.50;;
35540;SDS011;21650;48.840;9.162;2022-09-09T11:19:27;6.33;;;0.90;;
35540;SDS011;21650;48.840;9.162;2022-09-09T11:21:59;2.97;;;1.00;;
35540;SDS011;21650;48.840;9.162;2022-09-09T11:24:44;6.43;;;1.10;;
35540;SDS011;21650;48.840;9.162;2022-09-09T11:27:22;5.13;;;1.30;;
35540;SDS011;21650;48.840;9.162;2022-09-09T11:41:04;4.30;;;0.33;;
35540;SDS011;21650;48.840;9.162;2022-09-09T11:43:53;2.50;;;0.50;;
35540;SDS011;21650;48.840;9.162;2022-09-09T11:46:19;0.73;;;0.30;;
35540;SDS011;21650;48.840;9.162;2022-09-09T11:48:58;2.10;;;0.43;;
35540;SDS011;21650;48.840;9.162;2022-09-09T11:51:29;4.73;;;0.50;;
35540;SDS011;21650;48.840;9.162;2022-09-09T11:53:56;0.93;;;0.50;;
35540;SDS011;21650;48.840;9.162;2022-09-09T11:56:33;2.33;;;1.30;;
35540;SDS011;21650;48.840;9.162;2022-09-09T11:59:23;3.70;;;0.50;;
35540;SDS011;21650;48.840;9.162;2022-09-09T12:02:01;1.93;;;0.77;;
35540;SDS011;21650;48.840;9.162;2022-09-09T12:04:33;2.07;;;0.30;;
35540;SDS011;21650;48.840;9.162;2022-09-09T12:09:45;2.43;;;0.40;;
35540;SDS011;21650;48.840;9.162;2022-09-09T12:12:24;0.63;;;0.37;;
35540;SDS011;21650;48.840;9.162;2022-09-09T12:17:37;0.93;;;0.30;;
35540;SDS011;21650;48.840;9.162;2022-09-09T12:33:34;1.43;;;0.60;;
35540;SDS011;21650;48.840;9.162;2022-09-09T12:36:18;1.50;;;0.33;;
35540;SDS011;21650;48.840;9.162;2022-09-09T12:38:48;0.53;;;0.33;;
35540;SDS011;21650;48.840;9.162;2022-09-09T12:41:23;1.43;;;0.33;;
35540;SDS011;21650;48.840;9.162;2022-09-09T12:43:50;0.97;;;0.23;;
35540;SDS011;21650;48.840;9.162;2022-09-09T12:46:20;1.27;;;0.50;;
35540;SDS011;21650;48.840;9.162;2022-09-09T12:49:03;1.03;;;0.30;;
35540;SDS011;21650;48.840;9.162;2022-09-09T12:51:30;2.47;;;0.40;;
35540;SDS011;21650;48.840;9.162;2022-09-09T12:53:57;1.37;;;0.30;;
35540;SDS011;21650;48.840;9.162;2022-09-09T12:56:25;2.20;;;0.43;;
35540;SDS011;21650;48.840;9.162;2022-09-09T12:58:57;2.93;;;0.50;;
35540;SDS011;21650;48.840;9.162;2022-09-09T13:01:27;2.97;;;0.40;;
35540;SDS011;21650;48.840;9.162;2022-09-09T13:03:55;3.63;;;0.83;;
35540;SDS011;21650;48.840;9.162;2022-09-09T13:06:27;0.67;;;0.20;;
35540;SDS011;21650;48.840;9.162;2022-09-09T13:08:54;1.10;;;0.43;;
35540;SDS011;21650;48.840;9.162;2022-09-09T13:11:23;1.50;;;0.30;;
35540;SDS011;21650;48.840;9.162;2022-09-09T13:13:56;2.00;;;0.60;;
35540;SDS011;21650;48.840;9.162;2022-09-09T13:16:26;2.33;;;0.40;;
35540;SDS011;21650;48.840;9.162;2022-09-09T13:18:57;0.90;;;0.40;;
35540;SDS011;21650;48.840;9.162;2022-09-09T13:21:31;2.93;;;0.50;;
35540;SDS011;21650;48.840;9.162;2022-09-09T13:23:58;5.60;;;0.70;;
35540;SDS011;21650;48.840;9.162;2022-09-09T13:26:28;1.77;;;0.40;;
35540;SDS011;21650;48.840;9.162;2022-09-09T13:28:55;2.63;;;0.50;;
35540;SDS011;21650;48.840;9.162;2022-09-09T13:31:33;0.97;;;0.30;;
35540;SDS011;21650;48.840;9.162;2022-09-09T13:34:11;3.23;;;0.40;;
35540;SDS011;21650;48.840;9.162;2022-09-09T13:36:38;1.80;;;0.47;;
35540;SDS011;21650;48.840;9.162;2022-09-09T13:39:04;0.80;;;0.43;;
35540;SDS011;21650;48.840;9.162;2022-09-09T13:41:34;2.03;;;0.53;;
35540;SDS011;21650;48.840;9.162;2022-09-09T13:44:02;9.00;;;1.37;;
35540;SDS011;21650;48.840;9.162;2022-09-09T13:51:38;1.73;;;0.30;;
35540;SDS011;21650;48.840;9.162;2022-09-09T13:54:09;2.50;;;0.70;;
35540;SDS011;21650;48.840;9.162;2022-09-09T13:56:36;1.30;;;0.60;;
35540;SDS011;21650;48.840;9.162;2022-09-09T13:59:03;2.53;;;0.77;;
35540;SDS011;21650;48.840;9.162;2022-09-09T14:01:30;1.57;;;0.53;;
35540;SDS011;21650;48.840;9.162;2022-09-09T14:03:58;1.20;;;0.20;;
35540;SDS011;21650;48.840;9.162;2022-09-09T14:06:23;1.07;;;0.30;;
35540;SDS011;21650;48.840;9.162;2022-09-09T14:08:49;1.07;;;0.63;;
35540;SDS011;21650;48.840;9.162;2022-09-09T14:11:15;2.43;;;0.57;;
35540;SDS011;21650;48.840;9.162;2022-09-09T14:13:42;0.60;;;0.30;;
35540;SDS011;21650;48.840;9.162;2022-09-09T14:16:07;1.63;;;0.70;;
35540;SDS011;21650;48.840;9.162;2022-09-09T14:18:33;2.13;;;0.30;;
35540;SDS011;21650;48.840;9.162;2022-09-09T14:20:59;1.70;;;0.47;;
35540;SDS011;21650;48.840;9.162;2022-09-09T14:23:24;3.07;;;0.60;;
35540;SDS011;21650;48.840;9.162;2022-09-09T14:25:50;1.50;;;0.40;;
35540;SDS011;21650;48.840;9.162;2022-09-09T14:28:16;3.93;;;0.50;;
35540;SDS011;21650;48.840;9.162;2022-09-09T14:30:42;1.20;;;0.30;;
35540;SDS011;21650;48.840;9.162;2022-09-09T14:33:12;1.27;;;0.40;;
35540;SDS011;21650;48.840;9.162;2022-09-09T14:35:40;2.47;;;0.30;;
35540;SDS011;21650;48.840;9.162;2022-09-09T14:38:07;2.13;;;0.40;;
35540;SDS011;21650;48.840;9.162;2022-09-09T14:40:34;1.40;;;0.30;;
35540;SDS011;21650;48.840;9.162;2022-09-09T14:43:01;3.03;;;0.40;;
35540;SDS011;21650;48.840;9.162;2022-09-09T14:45:27;3.27;;;0.77;;
35540;SDS011;21650;48.840;9.162;2022-09-09T14:47:53;1.27;;;0.43;;
35540;SDS011;21650;48.840;9.162;2022-09-09T14:50:19;2.10;;;0.30;;
35540;SDS011;21650;48.840;9.162;2022-09-09T14:52:46;3.23;;;0.60;;
35540;SDS011;21650;48.840;9.162;2022-09-09T14:55:12;1.70;;;0.40;;
35540;SDS011;21650;48.840;9.162;2022-09-09T14:57:38;2.63;;;0.30;;
35540;SDS011;21650;48.840;9.162;2022-09-09T15:00:05;1.67;;;0.40;;
35540;SDS011;21650;48.840;9.162;2022-09-09T15:02:33;0.73;;;0.40;;
35540;SDS011;21650;48.840;9.162;2022-09-09T15:04:59;2.60;;;0.73;;
35540;SDS011;21650;48.840;9.162;2022-09-09T15:07:24;0.60;;;0.10;;
35540;SDS011;21650;48.840;9.162;2022-09-09T15:09:51;1.30;;;0.30;;
35540;SDS011;21650;48.840;9.162;2022-09-09T15:12:17;2.27;;;0.50;;
35540;SDS011;21650;48.840;9.162;2022-09-09T15:14:46;1.43;;;0.40;;
35540;SDS011;21650;48.840;9.162;2022-09-09T15:17:13;1.13;;;0.30;;
35540;SDS011;21650;48.840;9.162;2022-09-09T15:19:38;0.77;;;0.30;;
35540;SDS011;21650;48.840;9.162;2022-09-09T15:22:04;0.70;;;0.20;;
35540;SDS011;21650;48.840;9.162;2022-09-09T15:24:31;2.33;;;0.50;;
35540;SDS011;21650;48.840;9.162;2022-09-09T15:26:57;1.67;;;0.20;;
35540;SDS011;21650;48.840;9.162;2022-09-09T15:29:23;0.50;;;0.20;;
35540;SDS011;21650;48.840;9.162;2022-09-09T15:31:49;0.77;;;0.23;;
35540;SDS011;21650;48.840;9.162;2022-09-09T15:34:14;1.20;;;0.40;;
35540;SDS011;21650;48.840;9.162;2022-09-09T15:36:41;1.10;;;0.20;;
35540;SDS011;21650;48.840;9.162;2022-09-09T15:39:09;2.10;;;0.20;;
35540;SDS011;21650;48.840;9.162;2022-09-09T15:41:41;0.20;;;0.20;;
35540;SDS011;21650;48.840;9.162;2022-09-09T15:44:08;0.77;;;0.30;;
35540;SDS011;21650;48.840;9.162;2022-09-09T15:46:48;0.80;;;0.23;;
35540;SDS011;21650;48.840;9.162;2022-09-09T15:51:43;1.33;;;0.50;;
35540;SDS011;21650;48.840;9.162;2022-09-09T15:54:17;2.30;;;0.30;;
35540;SDS011;21650;48.840;9.162;2022-09-09T15:56:46;1.43;;;0.60;;
35540;SDS011;21650;48.840;9.162;2022-09-09T15:59:13;2.27;;;0.40;;
35540;SDS011;21650;48.840;9.162;2022-09-09T16:01:39;2.30;;;0.83;;
35540;SDS011;21650;48.840;9.162;2022-09-09T16:04:07;1.20;;;0.40;;
35540;SDS011;21650;48.840;9.162;2022-09-09T16:06:33;1.70;;;0.37;;
35540;SDS011;21650;48.840;9.162;2022-09-09T16:08:59;2.47;;;0.40;;
35540;SDS011;21650;48.840;9.162;2022-09-09T16:11:29;2.23;;;0.70;;
35540;SDS011;21650;48.840;9.162;2022-09-09T16:13:56;1.73;;;0.40;;
35540;SDS011;21650;48.840;9.162;2022-09-09T16:16:25;1.53;;;0.40;;
35540;SDS011;21650;48.840;9.162;2022-09-09T16:18:54;1.90;;;0.73;;
35540;SDS011;21650;48.840;9.162;2022-09-09T16:21:22;1.30;;;0.73;;
35540;SDS011;21650;48.840;9.162;2022-09-09T16:23:54;0.30;;;0.20;;
35540;SDS011;21650;48.840;9.162;2022-09-09T16:26:21;8.80;;;0.60;;
35540;SDS011;21650;48.840;9.162;2022-09-09T16:28:48;2.83;;;0.30;;
35540;SDS011;21650;48.840;9.162;2022-09-09T16:31:15;4.97;;;0.20;;
35540;SDS011;21650;48.840;9.162;2022-09-09T16:33:43;2.03;;;0.33;;
35540;SDS011;21650;48.840;9.162;2022-09-09T16:36:10;3.93;;;0.23;;
35540;SDS011;21650;48.840;9.162;2022-09-09T16:38:40;0.70;;;0.40;;
35540;SDS011;21650;48.840;9.162;2022-09-09T16:41:08;0.20;;;0.10;;
35540;SDS011;21650;48.840;9.162;2022-09-09T16:43:35;2.40;;;0.60;;
35540;SDS011;21650;48.840;9.162;2022-09-09T16:46:01;1.87;;;0.30;;
35540;SDS011;21650;48.840;9.162;2022-09-09T16:48:32;1.60;;;0.23;;
35540;SDS011;21650;48.840;9.162;2022-09-09T16:51:09;0.73;;;0.17;;
35540;SDS011;21650;48.840;9.162;2022-09-09T16:53:39;0.57;;;0.40;;
35540;SDS011;21650;48.840;9.162;2022-09-09T16:56:07;0.20;;;0.10;;
35540;SDS011;21650;48.840;9.162;2022-09-09T16:58:34;0.80;;;0.37;;
35540;SDS011;21650;48.840;9.162;2022-09-09T17:01:01;0.80;;;0.40;;
35540;SDS011;21650;48.840;9.162;2022-09-09T17:03:28;0.83;;;0.10;;
35540;SDS011;21650;48.840;9.162;2022-09-09T17:05:54;2.27;;;0.40;;
35540;SDS011;21650;48.840;9.162;2022-09-09T17:08:19;3.00;;;0.30;;
35540;SDS011;21650;48.840;9.162;2022-09-09T17:10:45;0.93;;;0.13;;
35540;SDS011;21650;48.840;9.162;2022-09-09T17:13:12;0.50;;;0.20;;
35540;SDS011;21650;48.840;9.162;2022-09-09T17:15:39;2.00;;;0.20;;
35540;SDS011;21650;48.840;9.162;2022-09-09T17:18:07;0.27;;;0.10;;
35540;SDS011;21650;48.840;9.162;2022-09-09T17:20:37;1.60;;;0.43;;
35540;SDS011;21650;48.840;9.162;2022-09-09T17:23:03;0.50;;;0.20;;
35540;SDS011;21650;48.840;9.162;2022-09-09T17:25:29;1.73;;;0.20;;
35540;SDS011;21650;48.840;9.162;2022-09-09T17:27:54;0.87;;;0.40;;
35540;SDS011;21650;48.840;9.162;2022-09-09T17:30:20;0.30;;;0.20;;